Time;durP1;ratioP1;P1;durP2;ratioP2;P2;SDS_P1;SDS_P2;PMS_P1;PMS_P2;Temp;Humidity;BMP_temperature;BMP_pressure;BME280_temperature;BME280_humidity;BME280_pressure;Samples;Min_cycle;Max_cycle;Signal;HPM_P1;HPM_P2
2022/06/17 00:02:14;;;;;;;5.10;2.57;;;26.80;56.70;;;;;;4998552;28;20532;-96
2022/06/17 00:04:42;;;;;;;3.37;3.07;;;26.80;56.70;;;;;;4967057;28;20458;-94
2022/06/17 00:07:15;;;;;;;3.07;2.57;;;26.70;56.70;;;;;;4982310;28;20453;-91
2022/06/17 00:09:41;;;;;;;3.17;2.70;;;26.70;56.70;;;;;;4946145;28;20788;-95
2022/06/17 00:12:11;;;;;;;4.37;3.37;;;26.70;56.70;;;;;;4962289;28;20432;-95
2022/06/17 00:17:24;;;;;;;3.23;2.93;;;26.70;56.80;;;;;;4970535;28;20425;-95
2022/06/17 00:19:50;;;;;;;2.87;2.67;;;26.70;56.80;;;;;;4998376;28;20772;-96
2022/06/17 00:22:16;;;;;;;2.73;2.53;;;26.60;56.80;;;;;;4974362;28;20470;-96
2022/06/17 00:24:42;;;;;;;3.00;2.70;;;26.60;56.80;;;;;;4943825;28;20442;-96
2022/06/17 00:27:13;;;;;;;4.13;2.70;;;26.60;56.80;;;;;;4965421;28;20523;-95
2022/06/17 00:29:42;;;;;;;3.60;2.90;;;26.60;56.80;;;;;;4981264;28;20471;-95
2022/06/17 00:32:08;;;;;;;3.40;2.87;;;26.50;56.80;;;;;;4964110;28;20445;-94
2022/06/17 00:34:34;;;;;;;3.20;2.53;;;26.50;56.90;;;;;;4981156;28;20408;-96
2022/06/17 00:37:01;;;;;;;3.50;2.70;;;26.50;56.90;;;;;;4976008;28;20526;-94
2022/06/17 00:39:31;;;;;;;4.70;3.10;;;26.40;56.80;;;;;;4978282;28;20453;-96
2022/06/17 00:42:18;;;;;;;2.53;2.33;;;26.40;56.90;;;;;;4956284;28;20509;-95
2022/06/17 00:44:54;;;;;;;2.80;2.60;;;26.40;56.90;;;;;;4949079;28;21039;-95
2022/06/17 00:47:26;;;;;;;2.93;2.63;;;26.40;57.00;;;;;;4953864;28;20438;-96
2022/06/17 00:50:15;;;;;;;3.27;2.97;;;26.40;57.00;;;;;;4966498;28;20461;-96
2022/06/17 00:53:09;;;;;;;3.13;2.83;;;26.30;57.00;;;;;;4972016;28;20417;-93
2022/06/17 00:55:53;;;;;;;4.10;2.90;;;26.30;57.00;;;;;;4961546;28;20446;-95
2022/06/17 00:58:22;;;;;;;3.80;2.70;;;26.30;57.10;;;;;;4946901;28;20442;-96
2022/06/17 01:00:53;;;;;;;3.90;3.23;;;26.20;57.10;;;;;;4980703;28;20441;-92
2022/06/17 01:03:35;;;;;;;2.77;2.50;;;26.20;57.10;;;;;;4961009;28;20481;-96
2022/06/17 01:06:08;;;;;;;4.50;2.70;;;26.20;57.20;;;;;;4964324;28;20449;-96
2022/06/17 01:11:28;;;;;;;3.03;2.67;;;26.10;57.20;;;;;;4961022;28;20414;-96
2022/06/17 01:13:58;;;;;;;3.00;2.60;;;26.10;57.20;;;;;;4947720;28;20426;-95
2022/06/17 01:16:30;;;;;;;2.93;2.73;;;26.10;57.30;;;;;;4991003;28;20446;-96
2022/06/17 01:19:32;;;;;;;3.50;2.47;;;26.10;57.30;;;;;;4951768;28;20508;-95
2022/06/17 01:22:26;;;;;;;2.83;2.53;;;26.00;57.30;;;;;;4964236;28;20469;-92
2022/06/17 01:24:56;;;;;;;4.80;2.80;;;26.00;57.30;;;;;;4964516;28;20485;-96
2022/06/17 01:27:26;;;;;;;7.40;2.97;;;26.00;57.40;;;;;;4964059;28;20417;-96
2022/06/17 01:29:55;;;;;;;2.70;2.50;;;26.00;57.40;;;;;;4964092;28;20981;-95
2022/06/17 01:32:27;;;;;;;3.00;2.73;;;25.90;57.40;;;;;;4979660;28;20815;-96
2022/06/17 01:34:54;;;;;;;3.47;2.67;;;25.90;57.50;;;;;;4979845;28;20413;-96
2022/06/17 01:37:20;;;;;;;3.90;3.20;;;25.90;57.50;;;;;;4979902;28;20428;-95
2022/06/17 01:39:47;;;;;;;3.53;3.13;;;25.90;57.50;;;;;;4960278;28;20761;-96
2022/06/17 01:42:14;;;;;;;3.20;2.90;;;25.90;57.60;;;;;;4975483;28;20472;-96
2022/06/17 01:44:44;;;;;;;2.83;2.63;;;25.90;57.60;;;;;;4953247;28;20438;-95
2022/06/17 01:47:20;;;;;;;3.47;3.17;;;25.80;57.60;;;;;;4977069;28;20774;-96
2022/06/17 01:49:53;;;;;;;3.17;2.90;;;25.80;57.60;;;;;;4960305;28;20500;-96
2022/06/17 01:52:24;;;;;;;3.43;3.13;;;25.80;57.60;;;;;;4944813;28;20425;-95
2022/06/17 01:55:03;;;;;;;3.33;2.90;;;25.70;57.60;;;;;;4945017;28;20433;-95
2022/06/17 01:57:44;;;;;;;3.20;2.90;;;25.70;57.60;;;;;;4951109;28;20980;-92
2022/06/17 02:00:18;;;;;;;3.23;2.93;;;25.70;57.70;;;;;;4960362;28;20439;-96
2022/06/17 02:03:00;;;;;;;3.10;2.80;;;25.70;57.70;;;;;;4955306;28;20835;-95
2022/06/17 02:05:30;;;;;;;3.47;3.17;;;25.60;57.70;;;;;;4979476;28;20453;-95
2022/06/17 02:08:03;;;;;;;3.47;3.17;;;25.60;57.70;;;;;;4951184;28;20535;-95
2022/06/17 02:10:38;;;;;;;2.77;2.57;;;25.60;57.80;;;;;;4961880;28;20744;-94
2022/06/17 02:13:09;;;;;;;4.00;2.60;;;25.60;57.80;;;;;;4948113;28;20428;-94
2022/06/17 02:15:53;;;;;;;2.90;2.70;;;25.60;57.80;;;;;;4965240;28;20445;-95
2022/06/17 02:18:52;;;;;;;7.33;2.87;;;25.50;57.80;;;;;;4935093;28;20450;-94
2022/06/17 02:21:28;;;;;;;2.73;2.53;;;25.50;57.90;;;;;;4978753;28;20449;-95
2022/06/17 02:23:54;;;;;;;3.40;3.10;;;25.50;57.90;;;;;;4964599;28;20464;-94
2022/06/17 02:26:22;;;;;;;3.23;2.93;;;25.40;57.90;;;;;;4960037;28;20412;-93
2022/06/17 02:28:49;;;;;;;4.50;3.30;;;25.40;57.90;;;;;;4960071;28;20481;-91
2022/06/17 02:31:19;;;;;;;3.20;2.90;;;25.40;58.00;;;;;;4944313;28;20441;-95
2022/06/17 02:33:49;;;;;;;3.50;3.20;;;25.40;58.00;;;;;;4978968;28;20803;-95
2022/06/17 02:36:45;;;;;;;3.20;2.77;;;25.40;58.00;;;;;;4976319;28;20442;-96
2022/06/17 02:39:14;;;;;;;3.07;2.80;;;25.40;58.10;;;;;;4968072;28;20585;-94
2022/06/17 02:41:50;;;;;;;3.00;2.63;;;25.30;58.10;;;;;;4934132;28;20437;-95
2022/06/17 02:44:27;;;;;;;2.57;2.30;;;25.30;58.20;;;;;;4972502;28;20461;-95
2022/06/17 02:47:00;;;;;;;2.90;2.53;;;25.30;58.20;;;;;;4976246;28;20752;-96
2022/06/17 02:49:30;;;;;;;3.00;2.70;;;25.20;58.10;;;;;;4949631;28;20528;-95
2022/06/17 02:52:03;;;;;;;3.00;2.73;;;25.20;58.20;;;;;;4979751;28;20417;-95
2022/06/17 02:54:42;;;;;;;3.30;2.73;;;25.20;58.20;;;;;;4972724;28;20410;-96
2022/06/17 02:57:15;;;;;;;3.50;3.20;;;25.20;58.20;;;;;;4963618;28;20395;-94
2022/06/17 02:59:50;;;;;;;3.53;3.27;;;25.20;58.30;;;;;;4966305;28;20483;-95
2022/06/17 03:02:23;;;;;;;4.43;3.07;;;25.10;58.20;;;;;;4982434;28;20794;-95
2022/06/17 03:05:01;;;;;;;3.23;2.93;;;25.10;58.30;;;;;;4954650;28;20457;-95
2022/06/17 03:07:30;;;;;;;3.33;3.03;;;25.10;58.30;;;;;;4971264;28;20541;-95
2022/06/17 03:10:17;;;;;;;3.53;3.20;;;25.10;58.30;;;;;;4978065;28;20409;-94
2022/06/17 03:12:54;;;;;;;3.10;2.60;;;25.00;58.30;;;;;;4946729;28;20938;-95
2022/06/17 03:15:22;;;;;;;5.20;3.00;;;25.00;58.30;;;;;;4933007;28;20436;-96
2022/06/17 03:17:50;;;;;;;4.17;3.07;;;25.00;58.40;;;;;;4947476;28;20508;-92
2022/06/17 03:20:30;;;;;;;3.40;2.80;;;25.00;58.50;;;;;;4947828;28;20815;-96
2022/06/17 03:23:01;;;;;;;3.47;2.97;;;25.00;58.50;;;;;;4962876;28;20480;-94
2022/06/17 03:25:47;;;;;;;3.27;2.97;;;25.00;58.50;;;;;;4947407;28;20432;-96
2022/06/17 03:28:20;;;;;;;3.10;2.80;;;24.90;58.50;;;;;;4978053;28;20444;-96
2022/06/17 03:31:01;;;;;;;6.77;3.37;;;24.90;58.50;;;;;;4999050;28;20472;-96
2022/06/17 03:33:56;;;;;;;3.60;3.30;;;24.90;58.50;;;;;;4980661;28;20465;-88
2022/06/17 03:36:37;;;;;;;3.07;2.87;;;24.90;58.50;;;;;;4972456;28;20473;-87
2022/06/17 03:39:34;;;;;;;3.03;2.50;;;24.80;58.50;;;;;;4962324;28;20887;-87
2022/06/17 03:42:18;;;;;;;3.07;2.77;;;24.80;58.50;;;;;;4962199;28;20446;-89
2022/06/17 03:44:53;;;;;;;3.07;2.80;;;24.80;58.60;;;;;;4962115;28;20437;-88
2022/06/17 03:47:32;;;;;;;3.53;3.23;;;24.70;59.10;;;;;;4962064;28;20445;-86
2022/06/17 03:50:05;;;;;;;3.40;2.87;;;24.70;58.60;;;;;;4955604;28;20435;-88
2022/06/17 03:52:48;;;;;;;3.40;2.73;;;24.70;58.90;;;;;;4980791;28;20448;-88
2022/06/17 03:55:19;;;;;;;2.77;2.57;;;24.70;58.60;;;;;;4965395;28;20493;-88
2022/06/17 03:57:49;;;;;;;4.17;3.40;;;24.70;58.70;;;;;;4962501;28;20421;-88
2022/06/17 04:00:34;;;;;;;3.10;2.90;;;24.70;58.70;;;;;;4973752;28;20421;-87
2022/06/17 04:03:08;;;;;;;3.30;2.97;;;24.60;58.60;;;;;;4963725;28;20477;-88
2022/06/17 04:05:37;;;;;;;3.20;2.90;;;24.60;58.70;;;;;;4965234;28;20441;-88
2022/06/17 04:08:05;;;;;;;3.10;2.50;;;24.60;58.70;;;;;;4945494;28;20525;-88
2022/06/17 04:10:36;;;;;;;3.07;2.87;;;24.60;58.70;;;;;;4951509;28;20983;-88
2022/06/17 04:13:05;;;;;;;3.03;2.73;;;24.50;58.70;;;;;;4974686;28;20464;-88
2022/06/17 04:15:57;;;;;;;3.20;2.60;;;24.50;58.70;;;;;;4960521;28;20968;-88
2022/06/17 04:18:26;;;;;;;2.90;2.70;;;24.50;58.70;;;;;;4953016;28;20425;-87
2022/06/17 04:20:57;;;;;;;3.07;2.83;;;24.50;58.70;;;;;;4965918;28;20528;-88
2022/06/17 04:23:29;;;;;;;4.93;2.80;;;24.50;58.80;;;;;;4956208;28;20462;-88
2022/06/17 04:26:25;;;;;;;2.90;2.70;;;24.50;58.80;;;;;;4946158;28;20489;-88
2022/06/17 04:28:56;;;;;;;2.73;2.50;;;24.40;58.70;;;;;;4964216;28;20421;-88
2022/06/17 04:31:28;;;;;;;2.73;2.53;;;24.40;58.80;;;;;;4972599;28;20433;-89
2022/06/17 04:34:02;;;;;;;5.20;2.63;;;24.40;58.80;;;;;;4952494;28;20497;-87
2022/06/17 04:36:50;;;;;;;3.00;2.73;;;24.40;58.80;;;;;;4951545;28;20437;-88
2022/06/17 04:39:37;;;;;;;3.33;2.70;;;24.40;58.80;;;;;;4963019;28;20449;-88
2022/06/17 04:42:43;;;;;;;3.50;2.97;;;24.30;58.80;;;;;;4921874;29;20482;-87
2022/06/17 04:45:24;;;;;;;2.90;2.70;;;24.30;58.90;;;;;;4921916;29;20783;-89
2022/06/17 04:47:53;;;;;;;3.10;2.80;;;24.20;58.80;;;;;;4945567;28;20447;-88
2022/06/17 04:50:24;;;;;;;2.83;2.63;;;24.20;58.90;;;;;;4976786;28;20846;-87
2022/06/17 04:52:54;;;;;;;3.03;2.80;;;24.20;58.90;;;;;;4969118;28;20423;-93
2022/06/17 04:55:32;;;;;;;3.00;2.50;;;24.20;58.90;;;;;;4974879;28;20477;-93
2022/06/17 04:58:21;;;;;;;3.33;3.13;;;24.20;59.00;;;;;;4946959;28;20434;-91
2022/06/17 05:00:54;;;;;;;2.90;2.60;;;24.20;59.00;;;;;;4945358;28;20445;-90
2022/06/17 05:03:41;;;;;;;3.37;3.00;;;24.20;59.00;;;;;;4977744;28;20479;-91
2022/06/17 05:06:13;;;;;;;3.63;2.80;;;24.10;59.00;;;;;;4960666;28;20756;-91
2022/06/17 05:08:49;;;;;;;2.50;2.30;;;24.10;59.10;;;;;;4949033;28;20460;-92
2022/06/17 05:11:20;;;;;;;3.23;2.93;;;24.10;59.10;;;;;;4961169;28;20420;-92
2022/06/17 05:14:00;;;;;;;3.03;2.80;;;24.10;59.20;;;;;;4944292;28;20452;-89
2022/06/17 05:16:27;;;;;;;3.77;2.90;;;24.10;59.20;;;;;;4961308;28;20411;-92
2022/06/17 05:18:55;;;;;;;4.80;2.70;;;24.10;59.30;;;;;;4944902;28;20445;-92
2022/06/17 05:21:25;;;;;;;2.80;2.60;;;24.10;59.30;;;;;;4947116;28;20437;-91
2022/06/17 05:24:11;;;;;;;3.80;3.10;;;24.10;59.40;;;;;;4981751;28;20506;-91
2022/06/17 05:26:39;;;;;;;3.67;2.70;;;24.10;59.40;;;;;;4962570;28;20417;-92
2022/06/17 05:29:09;;;;;;;3.60;2.70;;;24.00;59.40;;;;;;4980007;28;20409;-91
2022/06/17 05:31:49;;;;;;;3.20;2.70;;;24.00;59.40;;;;;;4964145;28;20490;-93
2022/06/17 05:34:17;;;;;;;6.47;2.73;;;24.00;59.50;;;;;;4946399;28;21079;-92
2022/06/17 05:36:43;;;;;;;2.73;2.53;;;24.00;59.60;;;;;;4979556;28;20452;-93
2022/06/17 05:39:13;;;;;;;3.30;3.00;;;24.00;59.60;;;;;;4944994;28;20449;-93
2022/06/17 05:41:41;;;;;;;4.63;2.57;;;24.00;59.70;;;;;;4950385;28;20445;-93
2022/06/17 05:44:07;;;;;;;6.70;2.77;;;24.00;59.70;;;;;;4947920;28;20465;-93
2022/06/17 05:46:40;;;;;;;2.80;2.60;;;24.00;59.70;;;;;;4955839;28;20529;-93
2022/06/17 05:49:32;;;;;;;4.20;3.10;;;23.90;59.70;;;;;;4948898;28;20469;-95
2022/06/17 05:52:21;;;;;;;3.30;3.00;;;23.90;59.70;;;;;;4955978;28;20429;-93
2022/06/17 05:55:04;;;;;;;2.80;2.60;;;23.90;59.80;;;;;;4966017;28;20452;-94
2022/06/17 05:57:33;;;;;;;3.70;3.27;;;23.90;59.80;;;;;;4947536;28;20449;-92
2022/06/17 06:00:01;;;;;;;2.60;2.40;;;23.90;59.80;;;;;;4974956;28;20538;-93
2022/06/17 06:03:07;;;;;;;3.80;2.57;;;23.90;59.90;;;;;;4970348;28;20446;-93
2022/06/17 06:05:39;;;;;;;4.10;2.70;;;23.90;59.90;;;;;;4943927;28;20457;-95
2022/06/17 06:08:14;;;;;;;4.67;2.70;;;23.90;59.90;;;;;;4972891;28;20471;-87
2022/06/17 06:10:50;;;;;;;2.70;2.50;;;23.90;60.00;;;;;;4947621;28;20421;-86
2022/06/17 06:13:48;;;;;;;3.20;2.90;;;24.00;60.00;;;;;;4944167;28;20508;-88
2022/06/17 06:16:16;;;;;;;4.83;2.70;;;23.90;60.00;;;;;;4952362;28;20776;-86
2022/06/17 06:23:34;;;;;;;3.40;2.60;;;23.90;60.00;;;;;;4984932;28;20554;-86
2022/06/17 06:26:02;;;;;;;5.03;3.13;;;23.90;60.10;;;;;;4939549;29;20470;-73
2022/06/17 06:28:29;;;;;;;3.70;2.87;;;23.90;60.10;;;;;;4937222;29;20506;-72
2022/06/17 06:31:23;;;;;;;2.73;2.53;;;23.90;60.10;;;;;;4939252;29;20506;-73
2022/06/17 06:33:54;;;;;;;3.90;2.97;;;23.80;60.00;;;;;;4941711;29;20434;-73
2022/06/17 06:36:23;;;;;;;3.70;2.80;;;23.80;60.00;;;;;;4942276;29;20579;-73
2022/06/17 06:38:49;;;;;;;4.23;2.93;;;23.90;60.10;;;;;;4941656;29;20427;-73
2022/06/17 06:41:21;;;;;;;6.00;3.20;;;23.90;60.20;;;;;;4925296;29;20462;-72
2022/06/17 06:43:48;;;;;;;2.70;2.50;;;23.90;60.20;;;;;;4938732;29;20467;-73
2022/06/17 06:46:36;;;;;;;3.10;2.70;;;23.90;60.20;;;;;;4942156;29;20514;-72
2022/06/17 06:49:07;;;;;;;3.40;3.00;;;23.90;60.20;;;;;;4936793;29;20412;-72
2022/06/17 06:51:36;;;;;;;2.60;2.40;;;23.90;60.20;;;;;;4925722;29;20472;-72
2022/06/17 06:54:05;;;;;;;2.87;2.67;;;23.90;60.10;;;;;;4937723;29;20461;-73
2022/06/17 06:56:33;;;;;;;2.67;2.47;;;23.90;60.10;;;;;;4958260;29;20435;-73
2022/06/17 06:58:59;;;;;;;3.00;2.63;;;23.90;60.10;;;;;;4925137;29;20454;-76
2022/06/17 07:01:25;;;;;;;3.10;2.80;;;23.90;60.00;;;;;;4957419;28;20485;-74
2022/06/17 07:03:51;;;;;;;3.30;3.00;;;23.90;60.10;;;;;;4941251;29;20532;-73
2022/06/17 07:06:17;;;;;;;3.20;2.90;;;23.90;60.00;;;;;;4940943;29;20414;-75
2022/06/17 07:08:44;;;;;;;2.60;2.40;;;23.90;60.00;;;;;;4923341;29;20530;-74
2022/06/17 07:11:10;;;;;;;3.27;2.97;;;23.90;60.00;;;;;;4928581;29;21059;-73
2022/06/17 07:13:37;;;;;;;3.33;2.47;;;23.90;59.90;;;;;;4936826;29;20428;-71
2022/06/17 07:16:07;;;;;;;3.00;2.80;;;23.90;59.90;;;;;;4921959;29;20439;-72
2022/06/17 07:18:36;;;;;;;2.93;2.63;;;23.90;59.90;;;;;;4942390;29;20462;-73
2022/06/17 07:21:11;;;;;;;3.93;2.40;;;23.90;59.90;;;;;;4941475;29;20450;-72
2022/06/17 07:23:40;;;;;;;6.43;2.40;;;23.90;59.80;;;;;;4933474;29;20454;-72
2022/06/17 07:26:12;;;;;;;2.80;2.60;;;23.90;59.80;;;;;;4924587;29;20431;-72
2022/06/17 07:28:41;;;;;;;4.07;2.73;;;23.90;59.80;;;;;;4933813;29;20509;-72
2022/06/17 07:31:06;;;;;;;3.10;2.80;;;24.00;59.90;;;;;;4909530;29;20450;-72
2022/06/17 07:33:42;;;;;;;3.80;3.07;;;24.00;59.90;;;;;;4954929;29;20430;-73
2022/06/17 07:41:52;;;;;;;2.67;2.47;;;24.00;59.90;;;;;;4948130;28;20451;-73
2022/06/17 07:44:21;;;;;;;2.40;2.20;;;24.10;60.00;;;;;;4922525;29;20518;-72
2022/06/17 07:46:50;;;;;;;2.77;2.57;;;24.10;60.00;;;;;;4917645;29;20459;-71
2022/06/17 07:49:17;;;;;;;2.60;2.40;;;24.10;60.00;;;;;;4941452;29;20775;-71
2022/06/17 07:51:44;;;;;;;2.80;2.60;;;24.10;60.00;;;;;;4933436;29;20451;-72
2022/06/17 07:54:14;;;;;;;2.27;2.07;;;24.10;59.90;;;;;;4928544;29;20464;-72
2022/06/17 07:56:42;;;;;;;2.77;2.57;;;24.10;59.90;;;;;;4928612;29;20844;-73
2022/06/17 07:59:09;;;;;;;3.47;2.80;;;24.10;59.90;;;;;;4937192;29;20423;-73
2022/06/17 08:01:35;;;;;;;2.70;2.47;;;24.20;60.00;;;;;;4919738;29;20459;-72
2022/06/17 08:04:01;;;;;;;2.37;2.17;;;24.20;60.10;;;;;;4930918;29;20462;-72
2022/06/17 08:06:28;;;;;;;2.77;2.57;;;24.20;60.10;;;;;;4920119;29;20936;-72
2022/06/17 08:08:54;;;;;;;2.70;2.50;;;24.20;60.10;;;;;;4919868;29;20430;-72
2022/06/17 08:11:19;;;;;;;2.43;2.20;;;24.20;60.00;;;;;;4918186;29;20475;-72
2022/06/17 08:13:46;;;;;;;2.93;2.63;;;24.30;60.20;;;;;;4927085;29;20435;-72
2022/06/17 08:16:14;;;;;;;3.70;2.63;;;24.30;60.20;;;;;;4924855;29;20517;-72
2022/06/17 08:18:41;;;;;;;2.70;2.50;;;24.30;60.20;;;;;;4925886;29;20425;-72
2022/06/17 08:21:07;;;;;;;2.73;2.50;;;24.40;60.30;;;;;;4928566;29;20455;-72
2022/06/17 08:23:37;;;;;;;3.00;2.33;;;24.40;60.30;;;;;;4954068;29;20489;-72
2022/06/17 08:26:04;;;;;;;3.33;2.40;;;24.40;60.30;;;;;;4922062;29;20830;-72
2022/06/17 08:28:30;;;;;;;2.77;2.50;;;24.40;60.30;;;;;;4954464;29;20444;-73
2022/06/17 08:30:59;;;;;;;3.00;2.60;;;24.40;60.30;;;;;;4953242;28;20427;-72
2022/06/17 08:33:31;;;;;;;3.13;2.40;;;24.50;60.40;;;;;;4953895;29;20659;-71
2022/06/17 08:36:06;;;;;;;2.67;2.40;;;24.50;60.50;;;;;;4932805;29;21005;-71
2022/06/17 08:38:38;;;;;;;2.60;2.40;;;24.50;60.40;;;;;;4915998;29;20495;-70
2022/06/17 08:41:13;;;;;;;2.73;2.53;;;24.50;60.40;;;;;;4916010;29;20455;-71
2022/06/17 08:44:43;;;;;;;2.57;2.30;;;24.50;60.40;;;;;;4917181;29;20546;-70
2022/06/17 08:47:14;;;;;;;2.53;2.33;;;24.50;60.40;;;;;;4893569;29;22038;-70
2022/06/17 08:50:05;;;;;;;2.50;2.30;;;24.60;60.50;;;;;;4880843;29;20548;-70
2022/06/17 08:52:56;;;;;;;3.00;2.20;;;24.60;60.60;;;;;;4901582;29;20484;-69
2022/06/17 08:55:44;;;;;;;2.90;2.70;;;24.60;60.60;;;;;;4917039;29;20712;-70
2022/06/17 08:58:25;;;;;;;3.00;2.70;;;24.60;60.60;;;;;;4928449;29;20428;-68
2022/06/17 09:00:51;;;;;;;2.10;2.00;;;24.70;60.60;;;;;;4935837;29;20446;-69
2022/06/17 09:03:49;;;;;;;2.80;2.60;;;24.70;60.60;;;;;;4953130;29;20482;-69
2022/06/17 09:06:39;;;;;;;3.10;2.80;;;24.70;60.50;;;;;;4948019;29;20844;-68
2022/06/17 09:09:23;;;;;;;2.87;2.60;;;24.70;60.40;;;;;;4935574;29;20785;-69
2022/06/17 09:12:08;;;;;;;2.87;2.40;;;24.70;60.40;;;;;;4917580;29;20464;-68
2022/06/17 09:15:08;;;;;;;2.77;2.57;;;24.80;60.50;;;;;;4952493;29;20418;-69
2022/06/17 09:17:49;;;;;;;4.53;2.73;;;24.80;60.50;;;;;;4951817;29;20423;-69
2022/06/17 09:20:19;;;;;;;2.33;2.13;;;24.90;60.60;;;;;;4933716;29;20442;-70
2022/06/17 09:22:56;;;;;;;2.60;2.40;;;24.80;60.40;;;;;;4935712;29;20495;-68
2022/06/17 09:25:40;;;;;;;3.00;2.77;;;24.90;60.40;;;;;;4935845;29;20509;-68
2022/06/17 09:28:13;;;;;;;3.17;2.60;;;24.90;60.40;;;;;;4935106;29;20855;-68
2022/06/17 09:30:53;;;;;;;2.63;2.43;;;25.00;60.40;;;;;;4952493;28;20956;-67
2022/06/17 09:33:42;;;;;;;2.60;2.40;;;25.00;60.30;;;;;;4953713;29;20462;-68
2022/06/17 09:36:28;;;;;;;2.50;2.30;;;25.00;60.30;;;;;;4935905;29;20462;-67
2022/06/17 09:39:04;;;;;;;3.30;2.47;;;25.00;60.20;;;;;;4952041;29;20435;-68
2022/06/17 09:42:07;;;;;;;3.37;3.07;;;25.10;60.20;;;;;;4934011;29;21046;-68
2022/06/17 09:44:45;;;;;;;3.00;2.70;;;25.10;60.10;;;;;;4933832;29;20522;-68
2022/06/17 09:47:30;;;;;;;3.03;2.73;;;25.10;60.00;;;;;;4919908;29;20541;-68
2022/06/17 09:50:28;;;;;;;4.17;2.40;;;25.10;60.10;;;;;;4935668;29;20503;-68
2022/06/17 09:53:18;;;;;;;2.57;2.37;;;25.20;60.00;;;;;;4930374;29;20473;-68
2022/06/17 09:55:53;;;;;;;3.30;2.53;;;25.20;59.90;;;;;;4934810;29;20457;-68
2022/06/17 09:58:28;;;;;;;3.47;2.43;;;25.30;59.90;;;;;;4948799;29;20434;-68
2022/06/17 10:00:56;;;;;;;3.30;2.60;;;25.30;59.80;;;;;;4918537;29;20894;-68
2022/06/17 10:03:32;;;;;;;2.60;2.40;;;25.30;59.70;;;;;;4946975;29;20533;-67
2022/06/17 10:06:29;;;;;;;4.60;2.63;;;25.40;59.70;;;;;;4934660;29;20461;-68
2022/06/17 10:09:13;;;;;;;2.93;2.63;;;25.40;59.70;;;;;;4951235;29;20516;-68
2022/06/17 10:11:48;;;;;;;2.83;2.63;;;25.50;59.70;;;;;;4952103;29;20462;-68
2022/06/17 10:14:53;;;;;;;3.27;3.00;;;25.50;60.30;;;;;;4950801;29;20434;-68
2022/06/17 10:20:42;;;;;;;2.90;2.53;;;25.60;59.60;;;;;;4913976;29;20438;-68
2022/06/17 10:23:31;;;;;;;2.63;2.40;;;25.60;59.60;;;;;;4932972;29;20999;-68
2022/06/17 10:26:20;;;;;;;2.93;2.63;;;25.60;59.40;;;;;;4933775;29;20839;-68
2022/06/17 10:28:52;;;;;;;3.43;2.57;;;25.70;59.30;;;;;;4929083;29;20447;-68
2022/06/17 10:31:39;;;;;;;2.70;2.50;;;25.70;59.20;;;;;;4943167;29;20567;-68
2022/06/17 10:34:18;;;;;;;6.33;2.47;;;25.80;59.20;;;;;;4951364;29;20502;-68
2022/06/17 10:36:52;;;;;;;2.60;2.40;;;25.90;58.70;;;;;;4950512;29;20537;-68
2022/06/17 10:39:23;;;;;;;2.60;2.40;;;25.90;58.20;;;;;;4931825;29;20427;-68
2022/06/17 10:41:52;;;;;;;4.37;2.40;;;25.90;58.30;;;;;;4931053;29;20494;-68
2022/06/17 10:44:26;;;;;;;4.50;2.80;;;26.00;58.30;;;;;;4950185;29;20474;-68
2022/06/17 10:47:05;;;;;;;4.10;2.47;;;26.00;58.40;;;;;;4949836;29;20430;-70
2022/06/17 10:49:40;;;;;;;3.67;2.67;;;26.10;58.40;;;;;;4948401;29;20506;-74
2022/06/17 10:52:19;;;;;;;4.90;2.40;;;26.10;58.30;;;;;;4935686;29;20511;-74
2022/06/17 10:54:51;;;;;;;2.50;2.30;;;26.10;58.30;;;;;;4945602;29;20807;-74
2022/06/17 10:57:31;;;;;;;2.93;2.40;;;26.10;58.20;;;;;;4920002;29;20439;-74
2022/06/17 10:59:59;;;;;;;4.07;2.70;;;26.20;58.30;;;;;;4949944;29;20454;-74
2022/06/17 11:02:32;;;;;;;3.33;2.20;;;26.20;58.30;;;;;;4949688;29;20482;-74
2022/06/17 11:05:06;;;;;;;3.17;2.37;;;26.30;58.20;;;;;;4945905;29;20429;-74
2022/06/17 11:07:37;;;;;;;3.60;2.30;;;26.30;57.90;;;;;;4915464;29;20494;-74
2022/06/17 11:10:17;;;;;;;2.70;2.13;;;26.40;57.70;;;;;;4927200;29;20446;-74
2022/06/17 11:13:00;;;;;;;2.57;2.37;;;26.40;57.60;;;;;;4912415;29;20459;-74
2022/06/17 11:15:31;;;;;;;3.00;2.70;;;26.50;57.50;;;;;;4955304;29;20454;-74
2022/06/17 11:18:14;;;;;;;3.80;2.60;;;26.50;57.50;;;;;;4954515;29;20563;-74
2022/06/17 11:20:56;;;;;;;2.63;2.13;;;26.50;57.40;;;;;;4921254;28;20797;-74
2022/06/17 11:23:29;;;;;;;3.37;2.40;;;26.50;57.20;;;;;;4937906;29;20851;-74
2022/06/17 11:26:10;;;;;;;3.03;2.30;;;26.60;57.10;;;;;;4929806;29;20462;-74
2022/06/17 11:28:47;;;;;;;2.60;2.40;;;26.60;57.30;;;;;;4936769;29;20461;-72
2022/06/17 11:31:32;;;;;;;3.10;2.80;;;26.60;57.30;;;;;;4931225;29;20453;-73
2022/06/17 11:34:08;;;;;;;2.70;2.50;;;26.60;57.70;;;;;;4943673;29;20427;-75
2022/06/17 11:36:48;;;;;;;3.33;2.63;;;26.70;57.20;;;;;;4954356;29;21026;-71
2022/06/17 11:39:37;;;;;;;3.03;2.37;;;26.70;57.30;;;;;;4953600;29;20797;-75
2022/06/17 11:42:24;;;;;;;2.53;2.33;;;26.70;57.20;;;;;;5013556;23;20505;-75
2022/06/17 11:44:58;;;;;;;2.87;2.67;;;26.80;57.30;;;;;;4969492;28;20450;-75
2022/06/17 11:47:27;;;;;;;3.10;2.43;;;26.80;57.30;;;;;;4974943;28;20849;-74
2022/06/17 11:49:59;;;;;;;3.43;2.80;;;26.80;57.20;;;;;;4967531;28;20414;-74
2022/06/17 11:52:32;;;;;;;2.70;2.50;;;26.80;57.20;;;;;;4964550;28;20477;-76
2022/06/17 11:54:58;;;;;;;4.10;2.40;;;26.90;57.10;;;;;;4975382;28;20433;-76
2022/06/17 11:57:31;;;;;;;2.40;2.20;;;26.90;56.90;;;;;;4966445;28;20426;-73
2022/06/17 12:00:20;;;;;;;3.00;2.33;;;27.00;56.70;;;;;;4975268;28;20425;-74
2022/06/17 12:03:02;;;;;;;3.00;2.80;;;27.00;56.60;;;;;;4956543;28;20489;-74
2022/06/17 12:05:37;;;;;;;2.57;2.37;;;27.00;56.70;;;;;;4955029;28;20842;-75
2022/06/17 12:08:24;;;;;;;2.90;2.60;;;27.10;56.80;;;;;;4964487;28;20420;-76
2022/06/17 12:11:09;;;;;;;2.80;2.30;;;27.10;56.70;;;;;;4973853;28;20485;-76
2022/06/17 12:13:49;;;;;;;2.70;2.50;;;27.10;56.50;;;;;;4941592;29;20458;-77
2022/06/17 12:16:32;;;;;;;2.90;2.70;;;27.20;56.50;;;;;;4923533;29;20435;-76
2022/06/17 12:18:59;;;;;;;3.53;2.50;;;27.20;56.50;;;;;;4955928;28;20423;-73
2022/06/17 12:21:36;;;;;;;2.90;2.43;;;27.20;56.50;;;;;;4937301;29;20498;-75
2022/06/17 12:24:27;;;;;;;3.03;2.27;;;27.30;56.50;;;;;;4954174;28;20791;-76
2022/06/17 12:27:14;;;;;;;6.03;2.77;;;27.30;56.30;;;;;;4956129;28;20415;-76
2022/06/17 12:30:04;;;;;;;2.80;2.37;;;27.40;56.20;;;;;;4954862;29;20434;-74
2022/06/17 12:32:43;;;;;;;3.93;2.33;;;27.40;56.10;;;;;;4960457;28;20462;-72
2022/06/17 12:35:50;;;;;;;2.30;2.10;;;27.50;56.20;;;;;;4970502;28;20962;-71
2022/06/17 12:38:25;;;;;;;3.80;2.27;;;27.50;56.30;;;;;;4971101;28;20432;-69
2022/06/17 12:41:03;;;;;;;2.70;2.10;;;27.50;56.30;;;;;;4954947;29;20450;-69
2022/06/17 12:43:40;;;;;;;2.67;2.30;;;27.50;56.20;;;;;;4965068;28;20477;-69
2022/06/17 12:46:16;;;;;;;3.07;2.23;;;27.50;56.00;;;;;;4962627;28;20429;-70
2022/06/17 12:48:56;;;;;;;2.70;2.50;;;27.60;55.80;;;;;;4973675;28;20434;-69
2022/06/17 12:54:51;;;;;;;3.30;2.27;;;27.70;55.40;;;;;;4963241;28;20971;-69
2022/06/17 12:57:49;;;;;;;2.27;2.10;;;27.70;55.60;;;;;;4972428;28;20466;-69
2022/06/17 13:00:41;;;;;;;2.77;2.47;;;27.70;55.50;;;;;;4955315;28;20830;-69
2022/06/17 13:03:15;;;;;;;2.33;2.13;;;27.80;55.70;;;;;;4937832;29;20463;-68
2022/06/17 13:05:46;;;;;;;2.33;2.13;;;27.80;55.70;;;;;;4967041;28;20419;-68
2022/06/17 13:08:17;;;;;;;3.20;2.70;;;27.90;55.70;;;;;;4952989;29;20422;-68
2022/06/17 13:11:05;;;;;;;3.77;2.33;;;27.90;55.60;;;;;;4953954;28;20518;-69
2022/06/17 13:14:04;;;;;;;3.10;2.40;;;28.00;55.60;;;;;;4937211;28;20477;-69
2022/06/17 13:16:40;;;;;;;2.40;2.20;;;28.00;55.40;;;;;;4954655;28;20431;-68
2022/06/17 13:19:22;;;;;;;5.60;2.10;;;28.00;55.40;;;;;;4958063;28;20452;-69
2022/06/17 13:21:59;;;;;;;3.30;2.30;;;28.10;55.30;;;;;;4962556;28;20960;-69
2022/06/17 13:24:57;;;;;;;3.13;2.20;;;28.10;54.90;;;;;;4954050;29;20552;-69
2022/06/17 13:27:42;;;;;;;2.43;2.23;;;28.10;55.00;;;;;;4953534;28;20461;-69
2022/06/17 13:30:22;;;;;;;2.43;2.20;;;28.20;54.90;;;;;;4964560;28;21005;-68
2022/06/17 13:32:59;;;;;;;5.57;2.33;;;28.20;54.80;;;;;;4969587;28;20498;-69
2022/06/17 13:35:34;;;;;;;4.50;2.33;;;28.30;54.80;;;;;;4952774;28;20481;-69
2022/06/17 13:38:26;;;;;;;2.70;2.50;;;28.30;54.40;;;;;;4937675;29;20447;-69
2022/06/17 13:41:11;;;;;;;3.60;2.20;;;28.30;54.40;;;;;;4965962;28;21013;-69
2022/06/17 13:43:50;;;;;;;5.23;1.93;;;28.40;54.50;;;;;;4952684;28;20469;-68
2022/06/17 13:46:29;;;;;;;2.40;2.07;;;28.50;54.70;;;;;;4953059;29;20485;-68
2022/06/17 13:49:15;;;;;;;4.60;2.30;;;28.50;54.70;;;;;;4967827;28;20429;-68
2022/06/17 13:52:03;;;;;;;3.50;2.40;;;28.50;54.60;;;;;;4956469;28;20498;-69
2022/06/17 13:54:53;;;;;;;3.47;2.30;;;28.60;54.50;;;;;;4963598;28;20410;-69
2022/06/17 13:57:35;;;;;;;2.33;2.13;;;28.60;54.50;;;;;;4973025;28;20442;-69
2022/06/17 14:00:19;;;;;;;1.60;1.50;;;28.60;54.30;;;;;;4958353;28;20432;-69